Time;durP1;ratioP1;P1;durP2;ratioP2;P2;SDS_P1;SDS_P2;PMS_P1;PMS_P2;Temp;Humidity;BMP_temperature;BMP_pressure;BME280_temperature;BME280_humidity;BME280_pressure;Samples;Min_cycle;Max_cycle;Signal;HPM_P1;HPM_P2
2022/03/21 00:01:16;;;;;;;15.30;3.90;;;;;;;3.32;63.89;101589.31;5077611;28;20048;-80
2022/03/21 00:03:44;;;;;;;7.70;3.28;;;;;;;3.30;63.95;101584.84;5079240;28;20057;-79
2022/03/21 00:06:12;;;;;;;10.82;3.60;;;;;;;3.20;63.79;101583.38;5079344;28;20110;-79
2022/03/21 00:08:39;;;;;;;12.82;4.13;;;;;;;2.98;63.91;101551.09;5077051;28;20048;-80
2022/03/21 00:11:06;;;;;;;12.27;4.13;;;;;;;3.24;63.75;101603.44;5076595;28;20050;-81
2022/03/21 00:13:35;;;;;;;13.77;3.70;;;;;;;3.23;64.04;101599.09;5075786;28;20110;-81
2022/03/21 00:16:03;;;;;;;12.30;4.03;;;;;;;3.10;64.30;101571.63;5074787;28;20053;-82
2022/03/21 00:18:31;;;;;;;11.38;3.65;;;;;;;3.06;64.38;101569.66;5074950;28;20457;-81
2022/03/21 00:20:58;;;;;;;14.35;3.72;;;;;;;3.02;64.16;101568.56;5076690;28;20094;-79
2022/03/21 00:23:26;;;;;;;12.38;3.40;;;;;;;2.93;64.36;101549.94;5075506;28;20084;-82
2022/03/21 00:25:53;;;;;;;12.43;3.60;;;;;;;3.12;64.81;101593.28;5075737;28;20063;-81
2022/03/21 00:28:21;;;;;;;12.20;3.72;;;;;;;3.04;64.59;101574.72;5075097;28;20506;-81
2022/03/21 00:30:48;;;;;;;11.82;3.58;;;;;;;2.86;64.45;101540.94;5076610;28;20059;-79
2022/03/21 00:33:18;;;;;;;8.30;3.65;;;;;;;2.81;64.29;101551.75;5076597;28;20080;-82
2022/03/21 00:36:09;;;;;;;11.35;4.55;;;;;;;3.02;64.94;101576.31;5087105;28;20039;-82
2022/03/21 00:38:57;;;;;;;11.18;3.47;;;;;;;2.70;64.98;101520.13;5096181;28;20059;-81
2022/03/21 00:41:25;;;;;;;12.30;3.72;;;;;;;3.01;64.96;101589.13;5095483;28;20051;-84
2022/03/21 00:43:52;;;;;;;9.30;3.15;;;;;;;2.86;65.23;101574.50;5095534;28;20058;-81
2022/03/21 00:46:19;;;;;;;10.50;3.40;;;;;;;2.92;65.04;101544.69;5095331;28;20056;-81
2022/03/21 00:48:46;;;;;;;12.27;3.65;;;;;;;2.94;65.28;101554.28;5095296;28;20044;-79
2022/03/21 00:51:13;;;;;;;12.10;3.08;;;;;;;2.98;65.41;101566.59;5095053;28;20459;-80
2022/03/21 00:53:40;;;;;;;9.70;3.22;;;;;;;3.00;65.82;101564.13;5095283;28;20143;-83
2022/03/21 00:56:07;;;;;;;12.13;3.20;;;;;;;2.72;65.42;101518.53;5095338;28;20113;-81
2022/03/21 00:58:34;;;;;;;8.75;3.40;;;;;;;2.94;65.41;101567.19;5095323;28;20569;-82
2022/03/21 01:01:01;;;;;;;11.45;3.20;;;;;;;2.89;65.68;101563.47;5095419;28;20047;-80
2022/03/21 01:03:28;;;;;;;13.30;4.55;;;;;;;2.93;65.58;101570.59;5095294;28;20083;-83
2022/03/21 01:05:55;;;;;;;12.57;3.28;;;;;;;2.74;65.96;101527.28;5095806;28;20052;-82
2022/03/21 01:08:22;;;;;;;12.35;3.70;;;;;;;2.87;66.02;101565.06;5095936;28;20048;-80
2022/03/21 01:10:49;;;;;;;13.00;3.58;;;;;;;2.58;65.89;101499.66;5095862;28;20052;-84
2022/03/21 01:13:18;;;;;;;8.60;3.17;;;;;;;2.74;66.22;101542.75;5094867;28;20505;-83
2022/03/21 01:15:46;;;;;;;12.48;3.28;;;;;;;2.83;66.06;101551.06;5095760;28;20633;-80
2022/03/21 01:18:13;;;;;;;7.65;2.65;;;;;;;2.83;66.06;101568.25;5095250;28;20059;-84
2022/03/21 01:20:40;;;;;;;10.45;2.67;;;;;;;2.84;66.21;101552.84;5098297;28;20048;-79
2022/03/21 01:23:07;;;;;;;8.52;3.17;;;;;;;2.76;66.18;101556.66;5096395;28;20048;-81
2022/03/21 01:25:34;;;;;;;12.13;3.35;;;;;;;2.78;66.50;101546.44;5096711;28;20138;-81
2022/03/21 01:28:01;;;;;;;11.82;3.72;;;;;;;2.59;66.33;101516.00;5096795;28;20043;-80
2022/03/21 01:30:28;;;;;;;11.25;3.20;;;;;;;2.78;66.47;101551.59;5098609;28;20060;-80
2022/03/21 01:32:55;;;;;;;12.07;3.08;;;;;;;2.69;66.60;101538.09;5118263;28;20095;-81
2022/03/21 01:35:22;;;;;;;12.70;3.47;;;;;;;2.52;66.61;101512.16;5115806;28;20027;-82
2022/03/21 01:37:49;;;;;;;7.05;2.90;;;;;;;2.74;66.88;101553.09;5095105;28;20113;-81
2022/03/21 01:40:17;;;;;;;7.80;3.00;;;;;;;2.72;66.57;101577.91;5094374;28;20056;-81
2022/03/21 01:42:46;;;;;;;11.48;3.28;;;;;;;2.64;66.96;101576.53;5094188;28;20563;-82
2022/03/21 01:45:19;;;;;;;11.10;3.00;;;;;;;2.55;66.95;101548.47;5094105;28;20051;-79
2022/03/21 01:47:46;;;;;;;10.48;2.80;;;;;;;2.64;67.48;101566.19;5094046;28;20480;-83
2022/03/21 01:50:14;;;;;;;13.02;3.85;;;;;;;2.61;66.86;101566.91;5093287;28;20106;-82
2022/03/21 01:52:42;;;;;;;8.65;2.90;;;;;;;2.61;67.22;101571.19;5094769;28;20056;-82
2022/03/21 01:57:58;;;;;;;10.20;3.10;;;;;;;2.31;67.41;101508.25;5100714;28;20072;-78
2022/03/21 02:00:25;;;;;;;11.60;3.15;;;;;;;2.53;67.24;101554.31;5102362;28;20142;-79
2022/03/21 02:02:52;;;;;;;9.35;3.30;;;;;;;2.45;67.58;101564.16;5103825;28;20163;-78
2022/03/21 02:05:21;;;;;;;11.23;3.33;;;;;;;2.49;67.68;101560.09;5100717;28;20425;-81
2022/03/21 02:07:48;;;;;;;12.45;3.60;;;;;;;2.39;67.65;101559.50;5099495;28;20078;-79
2022/03/21 02:10:15;;;;;;;14.50;3.90;;;;;;;2.15;67.96;101516.69;5094023;28;20080;-82
2022/03/21 02:12:42;;;;;;;16.75;4.13;;;;;;;2.38;67.84;101575.75;5093593;28;20048;-79
2022/03/21 02:15:11;;;;;;;10.48;3.80;;;;;;;2.36;67.98;101573.88;5091890;28;20058;-82
2022/03/21 02:17:41;;;;;;;12.40;3.97;;;;;;;2.18;68.04;101548.72;5093368;28;20083;-80
2022/03/21 02:20:08;;;;;;;14.15;4.40;;;;;;;2.10;68.20;101538.72;5094051;28;20496;-80
2022/03/21 02:23:05;;;;;;;18.55;5.65;;;;;;;2.25;68.14;101560.31;5093166;28;20509;-81
2022/03/21 02:25:35;;;;;;;17.27;5.55;;;;;;;1.93;68.29;101509.25;5085758;28;20063;-82
2022/03/21 02:28:08;;;;;;;15.45;5.70;;;;;;;1.86;68.38;101507.09;5088805;28;20059;-79
2022/03/21 02:30:42;;;;;;;15.48;5.78;;;;;;;1.90;68.53;101528.00;5094383;28;20076;-79
2022/03/21 02:33:11;;;;;;;21.95;7.35;;;;;;;2.14;68.68;101564.78;5093682;28;20058;-80
2022/03/21 02:35:41;;;;;;;13.38;4.72;;;;;;;2.12;68.51;101565.47;5093505;28;20151;-79
2022/03/21 02:38:10;;;;;;;16.42;4.45;;;;;;;2.08;68.81;101561.81;5093330;28;20060;-77
2022/03/21 02:40:38;;;;;;;15.13;4.43;;;;;;;2.07;69.02;101557.47;5091985;28;20052;-81
2022/03/21 02:43:05;;;;;;;16.73;4.93;;;;;;;2.02;68.99;101554.59;5092937;28;20092;-80
2022/03/21 02:45:32;;;;;;;14.63;4.35;;;;;;;2.03;69.01;101553.78;5093620;28;20056;-79
2022/03/21 02:47:59;;;;;;;20.85;7.90;;;;;;;2.03;69.21;101563.19;5093131;28;20131;-81
2022/03/21 02:50:40;;;;;;;19.85;6.63;;;;;;;1.98;69.03;101555.19;5092984;28;20100;-84
2022/03/21 02:53:10;;;;;;;35.70;6.40;;;;;;;1.94;69.35;101554.88;5093177;28;20073;-80
2022/03/21 02:55:40;;;;;;;11.45;4.40;;;;;;;1.76;69.10;101534.81;5092653;28;20513;-79
2022/03/21 02:58:07;;;;;;;17.80;4.20;;;;;;;1.81;69.51;101559.22;5092755;28;20078;-80
2022/03/21 03:00:34;;;;;;;15.80;4.03;;;;;;;1.90;69.72;101573.50;5092612;28;20274;-83
2022/03/21 03:03:01;;;;;;;12.68;3.28;;;;;;;1.90;69.73;101582.13;5092886;28;20051;-81
2022/03/21 03:05:28;;;;;;;17.50;4.00;;;;;;;1.90;69.49;101586.41;5098561;28;20048;-81
2022/03/21 03:07:55;;;;;;;15.38;3.83;;;;;;;1.86;70.02;101585.28;5099253;28;20051;-80
2022/03/21 03:10:22;;;;;;;12.20;3.97;;;;;;;1.63;70.03;101529.66;5099385;28;20066;-79
2022/03/21 03:12:49;;;;;;;16.00;4.70;;;;;;;1.83;69.78;101569.66;5099513;28;20102;-80
2022/03/21 03:15:15;;;;;;;17.20;5.50;;;;;;;1.82;69.98;101565.25;5094058;28;20056;-81
2022/03/21 03:17:42;;;;;;;20.65;6.28;;;;;;;1.55;70.14;101510.22;5098588;28;20047;-81
2022/03/21 03:20:10;;;;;;;12.40;4.53;;;;;;;1.70;70.38;101541.25;5093559;28;20424;-83
2022/03/21 03:22:38;;;;;;;16.55;4.55;;;;;;;1.81;70.15;101574.69;5092806;28;20114;-81
2022/03/21 03:25:06;;;;;;;13.63;4.13;;;;;;;1.82;70.48;101568.72;5096617;28;20055;-82
2022/03/21 03:27:33;;;;;;;13.05;4.13;;;;;;;1.57;70.02;101513.78;5100685;28;20036;-81
2022/03/21 03:30:03;;;;;;;13.55;3.88;;;;;;;1.61;70.38;101521.84;5104986;28;20101;-80
2022/03/21 03:32:30;;;;;;;12.15;4.70;;;;;;;1.60;70.21;101524.31;5105088;28;20094;-82
2022/03/21 03:34:57;;;;;;;12.18;4.10;;;;;;;1.57;70.45;101517.28;5098215;28;20058;-83
2022/03/21 03:37:24;;;;;;;14.07;4.82;;;;;;;1.85;70.15;101557.75;5099552;28;20520;-82
2022/03/21 03:39:51;;;;;;;14.27;4.63;;;;;;;1.87;70.32;101555.25;5098414;28;20052;-82
2022/03/21 03:42:20;;;;;;;10.35;3.40;;;;;;;1.80;70.25;101539.38;5098136;28;20048;-81
2022/03/21 03:44:47;;;;;;;13.82;3.53;;;;;;;1.95;70.20;101554.06;5097082;28;20125;-82
2022/03/21 03:47:14;;;;;;;14.30;3.65;;;;;;;1.95;69.90;101544.66;5095735;28;20101;-81
2022/03/21 03:49:41;;;;;;;16.38;3.80;;;;;;;2.01;69.89;101547.63;5098193;28;20056;-84
2022/03/21 03:52:08;;;;;;;13.52;4.93;;;;;;;2.00;69.96;101542.38;5087165;28;20055;-80
2022/03/21 03:54:35;;;;;;;13.20;3.58;;;;;;;1.87;69.94;101503.72;5101117;28;20105;-89
2022/03/21 03:57:02;;;;;;;11.23;3.58;;;;;;;2.13;69.80;101536.31;5100817;28;20058;-84
2022/03/21 03:59:29;;;;;;;15.02;4.13;;;;;;;2.04;69.83;101509.19;5107332;28;20052;-83
2022/03/21 04:01:56;;;;;;;15.55;3.85;;;;;;;2.08;69.55;101512.81;5115911;28;20051;-84
2022/03/21 04:04:24;;;;;;;13.70;4.32;;;;;;;2.27;69.36;101538.09;5113903;28;20062;-81
2022/03/21 04:06:53;;;;;;;13.68;3.80;;;;;;;2.30;69.29;101512.47;5104028;28;20044;-80
2022/03/21 04:09:20;;;;;;;16.08;4.25;;;;;;;2.38;69.19;101531.91;5100871;28;20063;-80
2022/03/21 04:11:46;;;;;;;12.15;3.85;;;;;;;2.50;68.72;101523.19;5091053;28;20078;-80
2022/03/21 04:14:13;;;;;;;14.13;3.38;;;;;;;2.51;69.10;101524.97;5087357;28;20109;-80
2022/03/21 04:16:44;;;;;;;14.63;3.47;;;;;;;2.60;68.86;101543.56;5089272;28;20424;-78
2022/03/21 04:19:13;;;;;;;17.95;3.65;;;;;;;2.37;68.46;101475.09;5080989;28;20055;-80
2022/03/21 04:21:41;;;;;;;13.88;3.70;;;;;;;2.70;68.06;101537.31;5095320;28;20055;-79
2022/03/21 04:24:08;;;;;;;9.77;3.28;;;;;;;2.71;67.98;101511.63;5095763;28;20055;-79
2022/03/21 04:26:35;;;;;;;11.60;3.45;;;;;;;2.78;67.65;101502.56;5095585;28;20056;-80
2022/03/21 04:29:04;;;;;;;14.45;4.05;;;;;;;2.99;67.31;101542.56;5094655;28;20446;-81
2022/03/21 04:31:33;;;;;;;16.37;3.70;;;;;;;3.06;67.20;101526.66;5096967;28;20520;-82
2022/03/21 04:34:01;;;;;;;11.20;3.30;;;;;;;3.08;67.14;101522.47;5088555;28;20058;-79
2022/03/21 04:36:31;;;;;;;14.35;3.58;;;;;;;3.28;66.69;101521.06;5092882;28;20055;-81
2022/03/21 04:38:58;;;;;;;14.55;3.60;;;;;;;3.49;66.37;101536.06;5092902;28;20060;-80
2022/03/21 04:41:25;;;;;;;12.20;3.60;;;;;;;3.60;65.90;101522.06;5094795;28;20048;-81
2022/03/21 04:43:52;;;;;;;13.82;4.07;;;;;;;3.79;65.58;101531.78;5093659;28;20087;-78
2022/03/21 04:46:19;;;;;;;11.98;3.60;;;;;;;3.94;64.50;101531.75;5094877;28;20067;-79
2022/03/21 04:48:46;;;;;;;12.18;3.28;;;;;;;3.96;64.66;101495.63;5093754;28;20480;-77
2022/03/21 04:51:13;;;;;;;13.40;3.63;;;;;;;4.22;63.96;101508.31;5093088;28;20056;-78
2022/03/21 04:53:40;;;;;;;11.18;3.58;;;;;;;4.42;63.70;101516.28;5094711;28;20058;-76
2022/03/21 04:56:07;;;;;;;10.80;3.58;;;;;;;4.55;63.42;101512.66;5094734;28;20060;-77
2022/03/21 04:58:34;;;;;;;14.50;4.18;;;;;;;4.48;63.18;101522.69;5094365;28;20421;-76
2022/03/21 05:01:01;;;;;;;12.07;4.13;;;;;;;4.59;62.95;101514.63;5094733;28;20060;-77
2022/03/21 05:03:28;;;;;;;16.85;3.83;;;;;;;4.83;62.55;101517.63;5095131;28;20086;-79
2022/03/21 05:05:56;;;;;;;14.20;4.70;;;;;;;5.09;62.08;101508.63;5094583;28;20051;-77
2022/03/21 05:08:23;;;;;;;11.85;3.95;;;;;;;5.18;60.96;101497.84;5081920;28;20125;-80
2022/03/21 05:10:50;;;;;;;19.05;4.82;;;;;;;5.31;60.77;101520.97;5095487;28;20060;-79
2022/03/21 05:13:17;;;;;;;17.48;4.35;;;;;;;5.04;60.84;101495.44;5095911;28;20056;-80
2022/03/21 05:15:45;;;;;;;10.25;3.75;;;;;;;5.03;61.00;101516.06;5096283;28;20079;-79
2022/03/21 05:18:12;;;;;;;20.38;5.53;;;;;;;4.79;61.18;101467.38;5094560;28;20083;-78
2022/03/21 05:20:39;;;;;;;13.68;4.43;;;;;;;5.45;60.36;101512.19;5094474;28;20056;-80
2022/03/21 05:31:22;;;;;;;15.38;4.47;;;;;;;5.67;59.21;101521.94;5094178;28;20086;-79
2022/03/21 05:36:35;;;;;;;11.43;3.58;;;;;;;5.49;59.22;101532.28;5096617;28;20055;-78
2022/03/21 05:39:03;;;;;;;11.63;3.78;;;;;;;5.30;59.80;101521.78;5094459;28;20062;-79
2022/03/21 05:41:30;;;;;;;17.27;4.10;;;;;;;4.80;60.01;101470.88;5094539;28;20058;-79
2022/03/21 05:43:57;;;;;;;9.23;3.97;;;;;;;5.08;60.05;101531.06;5076493;28;20196;-82
2022/03/21 05:46:25;;;;;;;12.63;3.60;;;;;;;5.02;60.20;101535.91;5075571;28;20425;-78
2022/03/21 05:48:58;;;;;;;12.90;3.75;;;;;;;4.85;60.36;101518.59;5084890;28;20505;-80
2022/03/21 05:51:28;;;;;;;13.15;3.50;;;;;;;4.69;60.50;101494.47;5075637;28;20502;-80
2022/03/21 05:53:57;;;;;;;11.25;3.80;;;;;;;4.93;60.62;101513.00;5075878;28;20044;-80
2022/03/21 05:56:27;;;;;;;9.60;3.63;;;;;;;5.08;59.65;101530.16;5076040;28;20059;-81
2022/03/21 05:58:56;;;;;;;12.48;3.97;;;;;;;5.10;60.15;101532.03;5073185;28;20056;-79
2022/03/21 06:01:24;;;;;;;13.50;4.13;;;;;;;5.15;59.95;101523.59;5073548;28;20482;-79
2022/03/21 06:03:53;;;;;;;12.40;4.00;;;;;;;5.18;59.17;101505.59;5074362;28;20139;-81
2022/03/21 06:06:22;;;;;;;20.50;4.77;;;;;;;5.42;59.11;101525.03;5078988;28;20059;-81
2022/03/21 06:08:50;;;;;;;10.77;3.88;;;;;;;5.43;59.19;101515.53;5073721;28;20294;-80
2022/03/21 06:11:17;;;;;;;13.98;4.35;;;;;;;5.51;58.35;101504.75;5073814;28;20048;-81
2022/03/21 06:13:47;;;;;;;12.77;3.95;;;;;;;5.66;58.70;101519.28;5074271;28;20060;-78
2022/03/21 06:16:15;;;;;;;16.02;3.58;;;;;;;5.45;58.32;101496.66;5055522;28;20144;-79
2022/03/21 06:18:42;;;;;;;10.88;3.67;;;;;;;5.35;58.64;101473.66;5073457;28;20055;-80
2022/03/21 06:21:11;;;;;;;13.05;4.40;;;;;;;5.51;58.42;101509.03;5076228;28;20057;-79
2022/03/21 06:23:38;;;;;;;15.85;3.58;;;;;;;5.58;58.51;101494.69;5076490;28;20067;-80
2022/03/21 06:26:07;;;;;;;13.43;3.83;;;;;;;5.65;57.94;101510.59;5079171;28;20052;-79
2022/03/21 06:28:35;;;;;;;15.00;3.83;;;;;;;5.74;58.07;101505.88;5090804;28;20101;-79
2022/03/21 06:31:05;;;;;;;12.73;3.55;;;;;;;5.87;57.46;101491.81;5097513;28;20070;-79
2022/03/21 06:33:32;;;;;;;15.55;3.65;;;;;;;6.04;57.22;101513.38;5109336;28;20040;-78
2022/03/21 06:36:07;;;;;;;13.15;3.78;;;;;;;6.24;57.36;101497.88;5112012;28;20071;-81
2022/03/21 06:38:35;;;;;;;11.13;3.40;;;;;;;6.29;56.45;101514.56;5099156;28;20501;-78
2022/03/21 06:41:04;;;;;;;16.42;4.03;;;;;;;6.26;56.21;101509.22;5094782;28;20055;-77
2022/03/21 06:43:32;;;;;;;14.10;3.78;;;;;;;6.09;56.38;101464.34;5092647;28;20576;-79
2022/03/21 06:46:05;;;;;;;17.75;3.85;;;;;;;6.27;56.31;101496.31;5093102;28;20079;-78
2022/03/21 06:48:34;;;;;;;12.05;3.22;;;;;;;6.31;55.76;101500.84;5092757;28;20593;-79
2022/03/21 06:51:02;;;;;;;15.38;3.75;;;;;;;6.53;55.45;101512.22;5092834;28;20052;-79
2022/03/21 06:53:28;;;;;;;10.77;3.80;;;;;;;6.75;55.27;101511.47;5092640;28;20079;-81
2022/03/21 06:55:55;;;;;;;12.70;3.22;;;;;;;6.67;54.90;101479.97;5091949;28;20487;-77
2022/03/21 06:58:22;;;;;;;13.52;3.40;;;;;;;7.00;54.37;101516.06;5091734;28;20494;-78
2022/03/21 07:00:59;;;;;;;14.63;3.13;;;;;;;6.90;53.89;101483.56;5052708;28;20059;-79
2022/03/21 07:03:28;;;;;;;12.88;3.63;;;;;;;6.97;53.45;101503.84;5052327;28;20053;-78
2022/03/21 07:05:55;;;;;;;10.30;3.35;;;;;;;7.11;53.73;101522.63;5052501;28;20099;-79
2022/03/21 07:08:28;;;;;;;12.57;3.60;;;;;;;7.16;53.34;101502.94;5035760;28;20061;-77
2022/03/21 07:10:55;;;;;;;13.10;4.07;;;;;;;7.14;52.97;101469.88;5055246;28;20418;-78
2022/03/21 07:13:22;;;;;;;13.70;3.60;;;;;;;7.35;52.60;101501.97;5057419;28;20485;-78
2022/03/21 07:15:50;;;;;;;10.57;3.25;;;;;;;7.28;52.21;101471.38;5058109;28;20056;-79
2022/03/21 07:18:17;;;;;;;13.68;3.85;;;;;;;7.41;52.16;101485.78;5056930;28;20057;-79
2022/03/21 07:20:44;;;;;;;12.82;3.65;;;;;;;7.39;51.71;101477.91;5057247;28;20056;-78
2022/03/21 07:23:11;;;;;;;10.52;3.40;;;;;;;7.46;51.61;101475.56;5056862;28;20060;-77
2022/03/21 07:25:38;;;;;;;9.43;3.35;;;;;;;7.67;51.09;101502.44;5083692;28;20068;-80
2022/03/21 07:28:05;;;;;;;14.30;3.70;;;;;;;7.76;51.14;101501.94;5076469;28;20074;-78
2022/03/21 07:30:33;;;;;;;13.13;3.67;;;;;;;7.49;50.45;101449.69;5076730;28;20502;-80
2022/03/21 07:33:00;;;;;;;7.60;2.55;;;;;;;7.78;49.73;101488.16;5076717;28;20072;-79
2022/03/21 07:35:27;;;;;;;11.38;3.20;;;;;;;7.80;49.65;101496.03;5076580;28;20052;-77
2022/03/21 07:37:56;;;;;;;11.10;3.30;;;;;;;7.92;49.79;101509.56;5077115;28;20060;-77
2022/03/21 07:40:24;;;;;;;14.35;3.55;;;;;;;7.83;49.25;101471.84;5076455;28;20056;-78
2022/03/21 07:42:51;;;;;;;10.05;3.35;;;;;;;7.91;49.25;101475.66;5076120;28;20048;-78
2022/03/21 07:48:05;;;;;;;13.38;3.03;;;;;;;7.96;49.12;101449.00;5076520;28;20048;-78
2022/03/21 07:50:32;;;;;;;13.68;2.95;;;;;;;8.19;48.24;101475.03;5075998;28;20056;-78
2022/03/21 07:53:00;;;;;;;10.90;2.85;;;;;;;8.23;48.21;101455.22;5084004;28;20425;-77
2022/03/21 07:55:28;;;;;;;11.85;3.13;;;;;;;8.21;48.08;101478.56;5096821;28;20059;-78
2022/03/21 07:57:55;;;;;;;13.65;3.35;;;;;;;8.15;47.86;101461.03;5097217;28;20052;-78
2022/03/21 08:00:23;;;;;;;12.85;2.72;;;;;;;8.16;47.93;101473.19;5096569;28;20051;-77
2022/03/21 08:02:51;;;;;;;11.60;3.03;;;;;;;8.19;47.49;101481.16;5096581;28;20094;-77
2022/03/21 08:05:19;;;;;;;10.07;2.90;;;;;;;8.28;47.38;101470.19;5096888;28;20155;-77
2022/03/21 08:07:46;;;;;;;8.25;2.72;;;;;;;8.29;47.05;101469.34;5097086;28;20052;-78
2022/03/21 08:10:15;;;;;;;11.40;4.43;;;;;;;8.27;47.22;101442.38;5097145;28;20087;-79
2022/03/21 08:12:43;;;;;;;7.55;2.83;;;;;;;8.39;47.04;101466.28;5095885;28;20493;-79
2022/03/21 08:15:12;;;;;;;10.55;3.15;;;;;;;8.22;46.71;101425.69;5062228;28;20066;-78
2022/03/21 08:18:00;;;;;;;10.93;3.15;;;;;;;8.42;47.24;101444.69;5096233;28;20056;-79
2022/03/21 08:20:33;;;;;;;9.15;3.15;;;;;;;8.57;46.78;101444.38;5095580;28;20072;-77
2022/03/21 08:23:10;;;;;;;10.63;3.35;;;;;;;8.44;46.06;101422.19;5095643;28;20055;-78
2022/03/21 08:25:45;;;;;;;8.93;2.78;;;;;;;8.67;46.20;101459.53;5095448;28;20528;-80
2022/03/21 08:28:14;;;;;;;8.88;3.17;;;;;;;8.66;45.75;101430.81;5078994;28;20052;-78
2022/03/21 08:30:42;;;;;;;8.32;2.72;;;;;;;8.76;45.42;101444.22;5095527;28;20093;-78
2022/03/21 08:33:12;;;;;;;10.50;2.80;;;;;;;8.88;45.36;101443.75;5092852;28;21121;-79
2022/03/21 08:35:40;;;;;;;9.10;3.03;;;;;;;8.98;45.12;101452.78;5086390;28;20066;-80
2022/03/21 08:38:09;;;;;;;10.77;3.05;;;;;;;9.04;44.76;101445.19;5095930;28;20105;-77
2022/03/21 08:40:37;;;;;;;16.25;3.75;;;;;;;9.22;44.81;101447.53;5096475;28;20067;-78
2022/03/21 08:43:08;;;;;;;8.80;2.80;;;;;;;9.18;44.51;101430.00;5094944;28;20417;-79
2022/03/21 08:45:36;;;;;;;8.27;2.85;;;;;;;9.31;43.87;101455.66;5095977;28;20048;-83
2022/03/21 08:48:04;;;;;;;20.92;6.57;;;;;;;9.20;43.37;101416.19;5095881;28;20058;-79
2022/03/21 08:50:34;;;;;;;12.60;3.50;;;;;;;9.23;43.06;101426.72;5095933;28;20048;-79
2022/03/21 08:53:02;;;;;;;11.48;3.70;;;;;;;9.27;42.61;101432.94;5096022;28;20051;-78
2022/03/21 08:55:31;;;;;;;13.82;3.38;;;;;;;9.41;42.27;101455.13;5077891;28;20052;-80
2022/03/21 08:57:59;;;;;;;11.18;3.05;;;;;;;9.09;42.43;101373.22;5096242;28;20131;-78
2022/03/21 09:00:30;;;;;;;9.88;3.50;;;;;;;9.61;42.61;101436.66;5097765;28;20093;-78
2022/03/21 09:02:57;;;;;;;11.40;3.30;;;;;;;9.74;42.09;101437.94;5098239;28;20048;-80
2022/03/21 09:05:25;;;;;;;9.15;3.00;;;;;;;9.79;41.84;101416.38;5107599;28;20032;-77
2022/03/21 09:07:52;;;;;;;6.68;2.80;;;;;;;9.91;41.30;101425.41;5116281;28;20056;-75
2022/03/21 09:10:19;;;;;;;10.18;2.80;;;;;;;9.83;41.30;101391.25;5104667;28;20506;-78
2022/03/21 09:12:47;;;;;;;11.73;3.25;;;;;;;10.03;40.94;101421.44;5078724;28;20135;-80
2022/03/21 09:15:14;;;;;;;10.95;3.00;;;;;;;10.01;40.28;101428.34;5075820;28;20078;-78
2022/03/21 09:17:41;;;;;;;10.45;2.80;;;;;;;10.06;40.03;101415.44;5094681;28;20048;-80
2022/03/21 09:20:09;;;;;;;7.90;2.58;;;;;;;10.01;40.16;101423.13;5093966;28;20052;-79
2022/03/21 09:22:36;;;;;;;8.07;2.45;;;;;;;9.91;39.64;101387.13;5093408;28;20055;-77
2022/03/21 09:25:03;;;;;;;4.55;2.00;;;;;;;10.15;39.43;101427.88;5094509;28;20052;-79
2022/03/21 09:27:31;;;;;;;8.85;2.53;;;;;;;10.03;39.24;101400.56;5094950;28;20139;-79
2022/03/21 09:29:58;;;;;;;8.93;2.20;;;;;;;10.13;39.35;101404.34;5093666;28;20051;-80
2022/03/21 09:32:28;;;;;;;11.57;2.47;;;;;;;10.03;39.36;101374.47;5091956;28;20062;-80
2022/03/21 09:34:55;;;;;;;10.32;3.15;;;;;;;10.25;39.32;101409.03;5092738;28;20056;-77
2022/03/21 09:37:22;;;;;;;12.00;2.70;;;;;;;10.28;39.02;101406.50;5092208;28;20048;-78
2022/03/21 09:39:49;;;;;;;8.95;2.55;;;;;;;10.34;39.05;101414.56;5093747;28;20056;-78
2022/03/21 09:42:16;;;;;;;5.13;2.10;;;;;;;10.26;38.79;101405.59;5092447;28;20052;-78
2022/03/21 09:44:43;;;;;;;5.95;2.10;;;;;;;10.33;39.16;101404.97;5092920;28;20122;-78
2022/03/21 09:49:58;;;;;;;7.70;2.80;;;;;;;10.31;38.62;101401.41;5094856;28;20079;-79
2022/03/21 09:52:27;;;;;;;10.70;2.63;;;;;;;10.39;38.58;101433.88;5093650;28;20048;-79
2022/03/21 09:54:55;;;;;;;10.25;2.80;;;;;;;10.36;38.34;101412.88;5092665;28;20114;-77
2022/03/21 09:57:21;;;;;;;12.38;2.80;;;;;;;10.17;38.23;101369.63;5090598;28;20452;-78
2022/03/21 09:59:49;;;;;;;10.88;3.15;;;;;;;10.49;38.55;101426.28;5075304;28;20048;-78
2022/03/21 10:02:18;;;;;;;9.43;3.00;;;;;;;10.54;38.34;101411.63;5092794;28;20055;-78
2022/03/21 10:04:46;;;;;;;10.32;2.58;;;;;;;10.58;38.28;101395.19;5094024;28;20140;-77
2022/03/21 10:07:16;;;;;;;9.45;2.78;;;;;;;10.74;38.28;101402.63;5093487;28;20052;-78
2022/03/21 10:10:08;;;;;;;8.60;2.58;;;;;;;10.67;38.02;101390.25;5093430;28;20129;-79
2022/03/21 10:12:41;;;;;;;8.85;2.67;;;;;;;10.86;37.98;101404.66;5093744;28;20060;-78
2022/03/21 10:15:11;;;;;;;8.30;2.42;;;;;;;10.97;37.85;101395.41;5093544;28;20060;-79
2022/03/21 10:17:39;;;;;;;8.93;2.90;;;;;;;10.84;37.55;101402.03;5093405;28;20048;-79
2022/03/21 10:20:14;;;;;;;9.52;2.30;;;;;;;10.81;37.31;101409.78;5092347;28;20425;-79
2022/03/21 10:22:45;;;;;;;9.90;3.05;;;;;;;10.83;37.64;101415.94;5093709;28;20074;-80
2022/03/21 10:25:16;;;;;;;10.93;3.05;;;;;;;10.97;37.61;101420.63;5078771;28;20115;-79
2022/03/21 10:27:45;;;;;;;9.52;2.70;;;;;;;10.98;37.23;101391.06;5073210;28;20106;-77
2022/03/21 10:30:15;;;;;;;4.65;2.08;;;;;;;10.83;37.05;101376.72;5072080;28;20151;-79
2022/03/21 10:32:59;;;;;;;8.57;2.38;;;;;;;11.13;36.94;101404.50;5072004;28;20181;-77
2022/03/21 10:35:29;;;;;;;9.00;2.33;;;;;;;11.15;36.34;101428.97;5072777;28;20049;-79
2022/03/21 10:37:58;;;;;;;8.57;2.40;;;;;;;10.99;36.43;101390.19;5072877;28;20048;-79
2022/03/21 10:40:31;;;;;;;10.80;2.90;;;;;;;11.12;36.25;101417.53;5073112;28;20048;-79
2022/03/21 10:43:06;;;;;;;8.00;2.53;;;;;;;11.20;36.16;101426.47;5072089;28;20048;-80
2022/03/21 10:45:42;;;;;;;8.93;2.85;;;;;;;11.31;36.67;101406.69;5073423;28;20048;-77
2022/03/21 10:48:15;;;;;;;10.07;2.63;;;;;;;11.40;36.13;101420.03;5074626;28;20102;-77
2022/03/21 10:50:45;;;;;;;11.02;2.45;;;;;;;11.44;36.16;101403.56;5072976;28;20068;-78
2022/03/21 10:53:38;;;;;;;10.85;2.67;;;;;;;11.44;36.28;101403.56;5072786;28;20486;-80
2022/03/21 10:56:09;;;;;;;9.07;2.70;;;;;;;11.18;36.21;101352.31;5073626;28;20110;-79
2022/03/21 10:58:38;;;;;;;7.38;2.70;;;;;;;11.48;36.17;101425.44;5072863;28;20044;-77
2022/03/21 11:01:16;;;;;;;12.27;2.85;;;;;;;11.46;36.39;101420.19;5072415;28;20422;-79
2022/03/21 11:03:49;;;;;;;8.32;2.60;;;;;;;11.52;36.05;101415.94;5073631;28;20087;-79
2022/03/21 11:06:16;;;;;;;8.88;2.40;;;;;;;11.62;35.84;101413.56;5076701;28;20048;-78
2022/03/21 11:08:50;;;;;;;10.90;3.08;;;;;;;11.62;36.02;101403.09;5083852;28;20169;-80
2022/03/21 11:11:18;;;;;;;9.35;2.63;;;;;;;11.62;35.48;101425.78;5073208;28;20072;-79
2022/03/21 11:13:47;;;;;;;14.63;3.08;;;;;;;11.60;35.87;101406.53;5074096;28;20060;-81
2022/03/21 11:16:18;;;;;;;10.18;2.72;;;;;;;11.62;35.84;101399.63;5074278;28;20053;-78
2022/03/21 11:18:48;;;;;;;7.63;2.60;;;;;;;11.49;35.79;101374.88;5074211;28;20060;-80
2022/03/21 11:21:19;;;;;;;13.07;3.33;;;;;;;11.62;35.26;101392.63;5073059;28;20128;-80
2022/03/21 11:23:47;;;;;;;13.88;3.22;;;;;;;11.73;35.34;101398.13;5072621;28;20679;-80
2022/03/21 11:26:42;;;;;;;10.05;2.80;;;;;;;11.85;35.54;101406.25;5074119;28;20532;-79
2022/03/21 11:29:21;;;;;;;9.52;3.00;;;;;;;11.80;35.13;101393.91;5074950;28;20399;-80
2022/03/21 11:32:26;;;;;;;11.82;2.95;;;;;;;11.82;35.33;101389.59;5074073;28;20063;-79
2022/03/21 11:35:07;;;;;;;8.27;2.63;;;;;;;11.80;35.42;101397.41;5094634;28;20048;-79
2022/03/21 11:37:34;;;;;;;7.97;2.30;;;;;;;11.71;35.11;101397.19;5098263;28;20044;-79
2022/03/21 11:40:24;;;;;;;7.18;2.20;;;;;;;11.62;35.50;101389.16;5116283;28;20045;-77
2022/03/21 11:42:52;;;;;;;10.85;2.80;;;;;;;11.61;35.70;101395.22;5111131;28;20052;-78
2022/03/21 11:45:27;;;;;;;9.70;2.80;;;;;;;11.74;35.51;101397.25;5095093;28;20097;-79
2022/03/21 11:48:22;;;;;;;10.23;2.55;;;;;;;11.78;35.03;101411.31;5092541;28;20568;-78
2022/03/21 11:50:51;;;;;;;8.23;2.97;;;;;;;11.70;35.30;101405.88;5092713;28;20050;-79
2022/03/21 11:53:27;;;;;;;9.68;2.53;;;;;;;11.69;35.78;101410.25;5094294;28;20094;-79